sensor_id;sensor_type;location;lat;lon;timestamp;P1;durP1;ratioP1;P2;durP2;ratioP2
23578;SDS011;11967;50.852;4.400;2023-07-22T00:02:02;13.40;;;9.48;;
23578;SDS011;11967;50.852;4.400;2023-07-22T00:04:28;14.25;;;9.65;;
23578;SDS011;11967;50.852;4.400;2023-07-22T00:06:54;14.52;;;9.63;;
23578;SDS011;11967;50.852;4.400;2023-07-22T00:09:19;14.32;;;10.18;;
23578;SDS011;11967;50.852;4.400;2023-07-22T00:11:45;16.00;;;9.73;;
23578;SDS011;11967;50.852;4.400;2023-07-22T00:14:10;16.02;;;9.90;;
23578;SDS011;11967;50.852;4.400;2023-07-22T00:16:36;23.38;;;10.25;;
23578;SDS011;11967;50.852;4.400;2023-07-22T00:19:02;16.10;;;9.60;;
23578;SDS011;11967;50.852;4.400;2023-07-22T00:21:28;17.60;;;9.73;;
23578;SDS011;11967;50.852;4.400;2023-07-22T00:23:54;14.35;;;9.38;;
23578;SDS011;11967;50.852;4.400;2023-07-22T00:26:20;11.85;;;9.02;;
23578;SDS011;11967;50.852;4.400;2023-07-22T00:28:46;14.25;;;9.30;;
23578;SDS011;11967;50.852;4.400;2023-07-22T00:31:12;18.35;;;10.00;;
23578;SDS011;11967;50.852;4.400;2023-07-22T00:33:38;11.90;;;9.13;;
23578;SDS011;11967;50.852;4.400;2023-07-22T00:36:03;16.48;;;9.32;;
23578;SDS011;11967;50.852;4.400;2023-07-22T00:38:29;16.60;;;9.82;;
23578;SDS011;11967;50.852;4.400;2023-07-22T00:40:55;16.75;;;9.82;;
23578;SDS011;11967;50.852;4.400;2023-07-22T00:43:21;15.27;;;9.30;;
23578;SDS011;11967;50.852;4.400;2023-07-22T00:45:47;16.70;;;10.27;;
23578;SDS011;11967;50.852;4.400;2023-07-22T00:48:14;16.50;;;9.60;;
23578;SDS011;11967;50.852;4.400;2023-07-22T00:50:40;15.25;;;9.25;;
23578;SDS011;11967;50.852;4.400;2023-07-22T00:53:06;15.85;;;9.73;;
23578;SDS011;11967;50.852;4.400;2023-07-22T00:55:32;14.63;;;9.00;;
23578;SDS011;11967;50.852;4.400;2023-07-22T00:57:59;16.35;;;10.93;;
23578;SDS011;11967;50.852;4.400;2023-07-22T01:00:25;16.23;;;9.88;;
23578;SDS011;11967;50.852;4.400;2023-07-22T01:02:51;16.23;;;9.02;;
23578;SDS011;11967;50.852;4.400;2023-07-22T01:05:16;15.25;;;10.00;;
23578;SDS011;11967;50.852;4.400;2023-07-22T01:07:43;16.17;;;9.52;;
23578;SDS011;11967;50.852;4.400;2023-07-22T01:10:09;15.88;;;9.52;;
23578;SDS011;11967;50.852;4.400;2023-07-22T01:12:35;18.95;;;9.98;;
23578;SDS011;11967;50.852;4.400;2023-07-22T01:15:01;19.00;;;10.32;;
23578;SDS011;11967;50.852;4.400;2023-07-22T01:17:32;16.30;;;9.43;;
23578;SDS011;11967;50.852;4.400;2023-07-22T01:20:00;15.13;;;9.77;;
23578;SDS011;11967;50.852;4.400;2023-07-22T01:22:25;14.88;;;10.30;;
23578;SDS011;11967;50.852;4.400;2023-07-22T01:24:53;14.95;;;10.38;;
23578;SDS011;11967;50.852;4.400;2023-07-22T01:27:19;17.35;;;10.35;;
23578;SDS011;11967;50.852;4.400;2023-07-22T01:29:45;18.17;;;11.15;;
23578;SDS011;11967;50.852;4.400;2023-07-22T01:32:10;16.92;;;10.25;;
23578;SDS011;11967;50.852;4.400;2023-07-22T01:34:36;16.17;;;10.15;;
23578;SDS011;11967;50.852;4.400;2023-07-22T01:37:02;17.55;;;10.10;;
23578;SDS011;11967;50.852;4.400;2023-07-22T01:39:29;17.77;;;10.57;;
23578;SDS011;11967;50.852;4.400;2023-07-22T01:41:55;19.05;;;10.35;;
23578;SDS011;11967;50.852;4.400;2023-07-22T01:44:20;19.60;;;10.80;;
23578;SDS011;11967;50.852;4.400;2023-07-22T01:46:47;16.60;;;10.20;;
23578;SDS011;11967;50.852;4.400;2023-07-22T01:49:13;20.10;;;10.35;;
23578;SDS011;11967;50.852;4.400;2023-07-22T01:51:39;18.60;;;10.85;;
23578;SDS011;11967;50.852;4.400;2023-07-22T01:54:06;19.45;;;10.18;;
23578;SDS011;11967;50.852;4.400;2023-07-22T01:56:34;19.35;;;10.77;;
23578;SDS011;11967;50.852;4.400;2023-07-22T01:59:25;21.52;;;11.82;;
23578;SDS011;11967;50.852;4.400;2023-07-22T02:01:54;14.27;;;10.43;;
23578;SDS011;11967;50.852;4.400;2023-07-22T02:05:07;17.10;;;10.32;;
23578;SDS011;11967;50.852;4.400;2023-07-22T02:07:37;17.27;;;10.90;;
23578;SDS011;11967;50.852;4.400;2023-07-22T02:10:04;19.00;;;11.15;;
23578;SDS011;11967;50.852;4.400;2023-07-22T02:12:31;18.98;;;10.65;;
23578;SDS011;11967;50.852;4.400;2023-07-22T02:15:00;20.70;;;11.55;;
23578;SDS011;11967;50.852;4.400;2023-07-22T02:17:32;16.80;;;11.18;;
23578;SDS011;11967;50.852;4.400;2023-07-22T02:20:03;17.63;;;10.45;;
23578;SDS011;11967;50.852;4.400;2023-07-22T02:22:31;21.40;;;11.77;;
23578;SDS011;11967;50.852;4.400;2023-07-22T02:25:07;23.52;;;10.85;;
23578;SDS011;11967;50.852;4.400;2023-07-22T02:27:40;18.85;;;11.20;;
23578;SDS011;11967;50.852;4.400;2023-07-22T02:30:12;16.52;;;10.15;;
23578;SDS011;11967;50.852;4.400;2023-07-22T02:32:41;18.02;;;10.90;;
23578;SDS011;11967;50.852;4.400;2023-07-22T02:35:08;21.65;;;11.85;;
23578;SDS011;11967;50.852;4.400;2023-07-22T02:37:40;18.15;;;11.57;;
23578;SDS011;11967;50.852;4.400;2023-07-22T02:40:06;20.73;;;10.73;;
23578;SDS011;11967;50.852;4.400;2023-07-22T02:42:39;25.42;;;12.25;;
23578;SDS011;11967;50.852;4.400;2023-07-22T02:45:05;20.45;;;11.40;;
23578;SDS011;11967;50.852;4.400;2023-07-22T02:47:35;25.58;;;12.57;;
23578;SDS011;11967;50.852;4.400;2023-07-22T02:50:02;25.77;;;12.02;;
23578;SDS011;11967;50.852;4.400;2023-07-22T02:52:29;23.17;;;12.20;;
23578;SDS011;11967;50.852;4.400;2023-07-22T02:55:08;22.13;;;12.48;;
23578;SDS011;11967;50.852;4.400;2023-07-22T02:57:36;26.02;;;13.45;;
23578;SDS011;11967;50.852;4.400;2023-07-22T03:00:03;26.83;;;13.93;;
23578;SDS011;11967;50.852;4.400;2023-07-22T03:02:32;22.83;;;12.50;;
23578;SDS011;11967;50.852;4.400;2023-07-22T03:05:08;22.05;;;12.95;;
23578;SDS011;11967;50.852;4.400;2023-07-22T03:07:35;25.52;;;12.25;;
23578;SDS011;11967;50.852;4.400;2023-07-22T03:10:05;25.50;;;14.07;;
23578;SDS011;11967;50.852;4.400;2023-07-22T03:12:31;28.77;;;13.68;;
23578;SDS011;11967;50.852;4.400;2023-07-22T03:14:57;23.17;;;12.70;;
23578;SDS011;11967;50.852;4.400;2023-07-22T03:17:23;27.25;;;13.50;;
23578;SDS011;11967;50.852;4.400;2023-07-22T03:19:49;22.75;;;12.32;;
23578;SDS011;11967;50.852;4.400;2023-07-22T03:22:16;22.90;;;12.88;;
23578;SDS011;11967;50.852;4.400;2023-07-22T03:24:42;26.92;;;13.68;;
23578;SDS011;11967;50.852;4.400;2023-07-22T03:27:09;19.80;;;12.68;;
23578;SDS011;11967;50.852;4.400;2023-07-22T03:29:35;23.95;;;13.18;;
23578;SDS011;11967;50.852;4.400;2023-07-22T03:32:01;19.52;;;13.35;;
23578;SDS011;11967;50.852;4.400;2023-07-22T03:34:27;28.95;;;13.15;;
23578;SDS011;11967;50.852;4.400;2023-07-22T03:36:53;24.75;;;12.98;;
23578;SDS011;11967;50.852;4.400;2023-07-22T03:39:19;24.90;;;12.93;;
23578;SDS011;11967;50.852;4.400;2023-07-22T03:41:46;22.30;;;13.23;;
23578;SDS011;11967;50.852;4.400;2023-07-22T03:44:11;23.42;;;13.50;;
23578;SDS011;11967;50.852;4.400;2023-07-22T03:46:37;24.50;;;13.48;;
23578;SDS011;11967;50.852;4.400;2023-07-22T03:49:03;20.35;;;12.75;;
23578;SDS011;11967;50.852;4.400;2023-07-22T03:51:29;28.35;;;12.68;;
23578;SDS011;11967;50.852;4.400;2023-07-22T03:53:55;24.20;;;13.25;;
23578;SDS011;11967;50.852;4.400;2023-07-22T03:56:21;24.85;;;12.63;;
23578;SDS011;11967;50.852;4.400;2023-07-22T03:58:48;20.13;;;12.13;;
23578;SDS011;11967;50.852;4.400;2023-07-22T04:01:14;19.98;;;12.98;;
23578;SDS011;11967;50.852;4.400;2023-07-22T04:03:40;27.60;;;12.10;;
23578;SDS011;11967;50.852;4.400;2023-07-22T04:06:06;26.33;;;12.38;;
23578;SDS011;11967;50.852;4.400;2023-07-22T04:08:31;22.30;;;11.60;;
23578;SDS011;11967;50.852;4.400;2023-07-22T04:10:57;23.85;;;12.60;;
23578;SDS011;11967;50.852;4.400;2023-07-22T04:13:24;28.25;;;12.63;;
23578;SDS011;11967;50.852;4.400;2023-07-22T04:15:50;28.92;;;12.07;;
23578;SDS011;11967;50.852;4.400;2023-07-22T04:18:19;24.58;;;12.80;;
23578;SDS011;11967;50.852;4.400;2023-07-22T04:20:46;22.95;;;12.38;;
23578;SDS011;11967;50.852;4.400;2023-07-22T04:23:14;21.25;;;11.95;;
23578;SDS011;11967;50.852;4.400;2023-07-22T04:25:40;27.63;;;12.98;;
23578;SDS011;11967;50.852;4.400;2023-07-22T04:28:07;22.00;;;12.10;;
23578;SDS011;11967;50.852;4.400;2023-07-22T04:30:35;21.08;;;12.13;;
23578;SDS011;11967;50.852;4.400;2023-07-22T04:33:02;24.33;;;11.88;;
23578;SDS011;11967;50.852;4.400;2023-07-22T04:35:32;24.52;;;11.90;;
23578;SDS011;11967;50.852;4.400;2023-07-22T04:37:59;25.65;;;12.68;;
23578;SDS011;11967;50.852;4.400;2023-07-22T04:40:25;26.23;;;11.88;;
23578;SDS011;11967;50.852;4.400;2023-07-22T04:42:51;24.38;;;11.95;;
23578;SDS011;11967;50.852;4.400;2023-07-22T04:45:16;22.20;;;12.65;;
23578;SDS011;11967;50.852;4.400;2023-07-22T04:47:45;23.70;;;12.13;;
23578;SDS011;11967;50.852;4.400;2023-07-22T04:50:13;23.52;;;12.23;;
23578;SDS011;11967;50.852;4.400;2023-07-22T04:52:41;27.95;;;11.52;;
23578;SDS011;11967;50.852;4.400;2023-07-22T04:57:38;28.77;;;12.30;;
23578;SDS011;11967;50.852;4.400;2023-07-22T05:00:10;21.35;;;11.88;;
23578;SDS011;11967;50.852;4.400;2023-07-22T05:02:41;22.08;;;11.77;;
23578;SDS011;11967;50.852;4.400;2023-07-22T05:05:09;21.10;;;11.23;;
23578;SDS011;11967;50.852;4.400;2023-07-22T05:07:35;26.10;;;10.90;;
23578;SDS011;11967;50.852;4.400;2023-07-22T05:10:00;22.77;;;11.40;;
23578;SDS011;11967;50.852;4.400;2023-07-22T05:12:26;20.40;;;11.45;;
23578;SDS011;11967;50.852;4.400;2023-07-22T05:14:52;21.15;;;11.15;;
23578;SDS011;11967;50.852;4.400;2023-07-22T05:17:17;20.27;;;10.68;;
23578;SDS011;11967;50.852;4.400;2023-07-22T05:19:43;22.40;;;11.95;;
23578;SDS011;11967;50.852;4.400;2023-07-22T05:22:09;23.40;;;11.55;;
23578;SDS011;11967;50.852;4.400;2023-07-22T05:24:35;23.38;;;11.50;;
23578;SDS011;11967;50.852;4.400;2023-07-22T05:27:00;18.25;;;10.40;;
23578;SDS011;11967;50.852;4.400;2023-07-22T05:29:27;22.13;;;10.68;;
23578;SDS011;11967;50.852;4.400;2023-07-22T05:31:52;24.02;;;10.55;;
23578;SDS011;11967;50.852;4.400;2023-07-22T05:34:18;24.52;;;11.55;;
23578;SDS011;11967;50.852;4.400;2023-07-22T05:36:44;23.10;;;10.65;;
23578;SDS011;11967;50.852;4.400;2023-07-22T05:39:09;19.70;;;9.77;;
23578;SDS011;11967;50.852;4.400;2023-07-22T05:41:35;21.63;;;10.77;;
23578;SDS011;11967;50.852;4.400;2023-07-22T05:44:01;22.25;;;10.38;;
23578;SDS011;11967;50.852;4.400;2023-07-22T05:46:26;24.15;;;10.15;;
23578;SDS011;11967;50.852;4.400;2023-07-22T05:48:52;19.35;;;9.77;;
23578;SDS011;11967;50.852;4.400;2023-07-22T05:51:17;19.15;;;10.40;;
23578;SDS011;11967;50.852;4.400;2023-07-22T05:53:43;18.75;;;9.18;;
23578;SDS011;11967;50.852;4.400;2023-07-22T05:56:10;16.27;;;9.23;;
23578;SDS011;11967;50.852;4.400;2023-07-22T05:58:36;20.85;;;9.30;;
23578;SDS011;11967;50.852;4.400;2023-07-22T06:01:02;22.15;;;9.23;;
23578;SDS011;11967;50.852;4.400;2023-07-22T06:03:27;19.13;;;9.20;;
23578;SDS011;11967;50.852;4.400;2023-07-22T06:05:53;16.30;;;8.30;;
23578;SDS011;11967;50.852;4.400;2023-07-22T06:08:19;15.75;;;8.60;;
23578;SDS011;11967;50.852;4.400;2023-07-22T06:10:44;24.40;;;9.77;;
23578;SDS011;11967;50.852;4.400;2023-07-22T06:13:10;19.85;;;8.88;;
23578;SDS011;11967;50.852;4.400;2023-07-22T06:15:36;20.75;;;8.90;;
23578;SDS011;11967;50.852;4.400;2023-07-22T06:18:01;21.85;;;9.52;;
23578;SDS011;11967;50.852;4.400;2023-07-22T06:20:27;18.13;;;8.75;;
23578;SDS011;11967;50.852;4.400;2023-07-22T06:22:53;20.40;;;8.48;;
23578;SDS011;11967;50.852;4.400;2023-07-22T06:25:19;17.52;;;8.07;;
23578;SDS011;11967;50.852;4.400;2023-07-22T06:27:45;20.38;;;7.80;;
23578;SDS011;11967;50.852;4.400;2023-07-22T06:30:11;19.95;;;8.00;;
23578;SDS011;11967;50.852;4.400;2023-07-22T06:32:37;19.95;;;8.27;;
23578;SDS011;11967;50.852;4.400;2023-07-22T06:35:04;21.17;;;8.20;;
23578;SDS011;11967;50.852;4.400;2023-07-22T06:37:30;15.90;;;7.93;;
23578;SDS011;11967;50.852;4.400;2023-07-22T06:39:57;20.95;;;8.15;;
23578;SDS011;11967;50.852;4.400;2023-07-22T06:42:22;16.88;;;7.55;;
23578;SDS011;11967;50.852;4.400;2023-07-22T06:44:49;16.73;;;7.93;;
23578;SDS011;11967;50.852;4.400;2023-07-22T06:47:15;15.32;;;7.50;;
23578;SDS011;11967;50.852;4.400;2023-07-22T06:49:41;15.95;;;7.97;;
23578;SDS011;11967;50.852;4.400;2023-07-22T06:52:07;17.30;;;7.78;;
23578;SDS011;11967;50.852;4.400;2023-07-22T06:54:33;13.68;;;7.93;;
23578;SDS011;11967;50.852;4.400;2023-07-22T06:56:59;16.55;;;7.57;;
23578;SDS011;11967;50.852;4.400;2023-07-22T06:59:26;18.70;;;7.90;;
23578;SDS011;11967;50.852;4.400;2023-07-22T07:01:51;15.10;;;7.32;;
23578;SDS011;11967;50.852;4.400;2023-07-22T07:04:17;13.05;;;7.20;;
23578;SDS011;11967;50.852;4.400;2023-07-22T07:06:43;11.32;;;7.28;;
23578;SDS011;11967;50.852;4.400;2023-07-22T07:09:10;15.75;;;7.40;;
23578;SDS011;11967;50.852;4.400;2023-07-22T07:11:36;16.05;;;7.65;;
23578;SDS011;11967;50.852;4.400;2023-07-22T07:14:02;23.63;;;7.60;;
23578;SDS011;11967;50.852;4.400;2023-07-22T07:16:28;16.02;;;7.43;;
23578;SDS011;11967;50.852;4.400;2023-07-22T07:18:56;16.13;;;7.57;;
23578;SDS011;11967;50.852;4.400;2023-07-22T07:21:23;19.40;;;7.30;;
23578;SDS011;11967;50.852;4.400;2023-07-22T07:23:48;16.73;;;7.85;;
23578;SDS011;11967;50.852;4.400;2023-07-22T07:26:15;15.73;;;7.75;;
23578;SDS011;11967;50.852;4.400;2023-07-22T07:28:41;16.52;;;7.47;;
23578;SDS011;11967;50.852;4.400;2023-07-22T07:31:07;16.40;;;7.30;;
23578;SDS011;11967;50.852;4.400;2023-07-22T07:33:33;12.93;;;7.32;;
23578;SDS011;11967;50.852;4.400;2023-07-22T07:35:59;17.70;;;8.05;;
23578;SDS011;11967;50.852;4.400;2023-07-22T07:38:25;17.77;;;7.18;;
23578;SDS011;11967;50.852;4.400;2023-07-22T07:40:57;17.27;;;7.57;;
23578;SDS011;11967;50.852;4.400;2023-07-22T07:43:25;16.98;;;7.38;;
23578;SDS011;11967;50.852;4.400;2023-07-22T07:46:11;20.52;;;7.53;;
23578;SDS011;11967;50.852;4.400;2023-07-22T07:48:53;15.98;;;7.45;;
23578;SDS011;11967;50.852;4.400;2023-07-22T07:51:24;17.33;;;6.40;;
23578;SDS011;11967;50.852;4.400;2023-07-22T07:53:53;14.85;;;6.70;;
23578;SDS011;11967;50.852;4.400;2023-07-22T07:56:19;16.50;;;7.32;;
23578;SDS011;11967;50.852;4.400;2023-07-22T07:58:46;17.83;;;6.25;;
23578;SDS011;11967;50.852;4.400;2023-07-22T08:01:14;15.38;;;6.78;;
23578;SDS011;11967;50.852;4.400;2023-07-22T08:03:41;26.80;;;7.38;;
23578;SDS011;11967;50.852;4.400;2023-07-22T08:06:07;14.52;;;7.10;;
23578;SDS011;11967;50.852;4.400;2023-07-22T08:08:34;15.30;;;6.30;;
23578;SDS011;11967;50.852;4.400;2023-07-22T08:11:02;14.65;;;6.40;;
23578;SDS011;11967;50.852;4.400;2023-07-22T08:13:35;16.13;;;6.25;;
23578;SDS011;11967;50.852;4.400;2023-07-22T08:16:02;14.15;;;6.45;;
23578;SDS011;11967;50.852;4.400;2023-07-22T08:18:30;14.48;;;6.22;;
23578;SDS011;11967;50.852;4.400;2023-07-22T08:20:56;12.45;;;6.22;;
23578;SDS011;11967;50.852;4.400;2023-07-22T08:23:23;13.18;;;5.85;;
23578;SDS011;11967;50.852;4.400;2023-07-22T08:25:49;13.27;;;5.68;;
23578;SDS011;11967;50.852;4.400;2023-07-22T08:28:15;10.20;;;5.70;;
23578;SDS011;11967;50.852;4.400;2023-07-22T08:30:41;11.82;;;5.10;;
23578;SDS011;11967;50.852;4.400;2023-07-22T08:33:08;11.75;;;5.38;;
23578;SDS011;11967;50.852;4.400;2023-07-22T08:35:35;10.93;;;5.13;;
23578;SDS011;11967;50.852;4.400;2023-07-22T08:38:01;13.02;;;5.20;;
23578;SDS011;11967;50.852;4.400;2023-07-22T08:40:37;10.57;;;5.03;;
23578;SDS011;11967;50.852;4.400;2023-07-22T08:43:05;13.48;;;4.60;;
23578;SDS011;11967;50.852;4.400;2023-07-22T08:45:33;12.85;;;5.30;;
23578;SDS011;11967;50.852;4.400;2023-07-22T08:48:01;13.85;;;5.47;;
23578;SDS011;11967;50.852;4.400;2023-07-22T08:50:34;12.35;;;4.55;;
23578;SDS011;11967;50.852;4.400;2023-07-22T08:53:12;13.15;;;5.20;;
23578;SDS011;11967;50.852;4.400;2023-07-22T08:55:38;11.68;;;4.80;;
23578;SDS011;11967;50.852;4.400;2023-07-22T08:58:06;11.63;;;4.57;;
23578;SDS011;11967;50.852;4.400;2023-07-22T09:00:35;13.50;;;4.45;;
23578;SDS011;11967;50.852;4.400;2023-07-22T09:03:02;11.60;;;4.55;;
23578;SDS011;11967;50.852;4.400;2023-07-22T09:05:28;11.88;;;4.15;;
23578;SDS011;11967;50.852;4.400;2023-07-22T09:07:54;11.48;;;4.18;;
23578;SDS011;11967;50.852;4.400;2023-07-22T09:10:21;9.73;;;4.30;;
23578;SDS011;11967;50.852;4.400;2023-07-22T09:12:49;11.05;;;4.22;;
23578;SDS011;11967;50.852;4.400;2023-07-22T09:15:16;9.90;;;4.18;;
23578;SDS011;11967;50.852;4.400;2023-07-22T09:17:43;10.07;;;3.78;;
23578;SDS011;11967;50.852;4.400;2023-07-22T09:20:11;9.20;;;4.10;;
23578;SDS011;11967;50.852;4.400;2023-07-22T09:22:44;8.88;;;3.80;;
23578;SDS011;11967;50.852;4.400;2023-07-22T09:25:16;8.70;;;3.25;;
23578;SDS011;11967;50.852;4.400;2023-07-22T09:27:42;7.05;;;3.17;;
23578;SDS011;11967;50.852;4.400;2023-07-22T09:30:30;9.30;;;3.13;;
23578;SDS011;11967;50.852;4.400;2023-07-22T09:32:59;7.93;;;3.15;;
23578;SDS011;11967;50.852;4.400;2023-07-22T09:35:30;7.28;;;3.10;;
23578;SDS011;11967;50.852;4.400;2023-07-22T09:38:25;5.30;;;2.80;;
23578;SDS011;11967;50.852;4.400;2023-07-22T09:40:51;6.50;;;2.80;;
23578;SDS011;11967;50.852;4.400;2023-07-22T09:43:17;6.55;;;3.17;;
23578;SDS011;11967;50.852;4.400;2023-07-22T09:45:46;8.23;;;3.00;;
23578;SDS011;11967;50.852;4.400;2023-07-22T09:48:12;7.15;;;2.83;;
23578;SDS011;11967;50.852;4.400;2023-07-22T09:50:38;7.05;;;3.25;;
23578;SDS011;11967;50.852;4.400;2023-07-22T09:53:03;7.68;;;3.13;;
23578;SDS011;11967;50.852;4.400;2023-07-22T09:55:30;7.20;;;2.95;;
23578;SDS011;11967;50.852;4.400;2023-07-22T09:58:03;7.28;;;3.00;;
23578;SDS011;11967;50.852;4.400;2023-07-22T10:00:36;6.97;;;2.75;;
23578;SDS011;11967;50.852;4.400;2023-07-22T10:03:02;7.60;;;3.03;;
23578;SDS011;11967;50.852;4.400;2023-07-22T10:05:30;4.88;;;2.60;;
23578;SDS011;11967;50.852;4.400;2023-07-22T10:07:59;4.82;;;2.50;;
23578;SDS011;11967;50.852;4.400;2023-07-22T10:10:30;5.20;;;2.00;;
23578;SDS011;11967;50.852;4.400;2023-07-22T10:13:00;4.85;;;2.47;;
23578;SDS011;11967;50.852;4.400;2023-07-22T10:15:28;7.10;;;2.75;;
23578;SDS011;11967;50.852;4.400;2023-07-22T10:17:55;8.50;;;2.53;;
23578;SDS011;11967;50.852;4.400;2023-07-22T10:20:21;5.25;;;2.47;;
23578;SDS011;11967;50.852;4.400;2023-07-22T10:22:48;4.40;;;2.40;;
23578;SDS011;11967;50.852;4.400;2023-07-22T10:25:15;4.60;;;2.47;;
23578;SDS011;11967;50.852;4.400;2023-07-22T10:27:42;5.60;;;2.22;;
23578;SDS011;11967;50.852;4.400;2023-07-22T10:30:09;8.27;;;2.30;;
23578;SDS011;11967;50.852;4.400;2023-07-22T10:32:37;5.25;;;2.10;;
23578;SDS011;11967;50.852;4.400;2023-07-22T10:35:04;3.63;;;2.10;;
23578;SDS011;11967;50.852;4.400;2023-07-22T10:37:35;3.88;;;1.67;;
23578;SDS011;11967;50.852;4.400;2023-07-22T10:40:47;4.65;;;2.20;;
23578;SDS011;11967;50.852;4.400;2023-07-22T10:43:00;5.47;;;2.03;;
23578;SDS011;11967;50.852;4.400;2023-07-22T10:45:32;7.75;;;2.25;;
23578;SDS011;11967;50.852;4.400;2023-07-22T10:48:11;5.15;;;2.90;;
23578;SDS011;11967;50.852;4.400;2023-07-22T10:50:44;3.60;;;2.30;;
23578;SDS011;11967;50.852;4.400;2023-07-22T10:56:05;6.55;;;2.83;;
23578;SDS011;11967;50.852;4.400;2023-07-22T11:11:58;9.98;;;5.05;;
23578;SDS011;11967;50.852;4.400;2023-07-22T11:15:01;6.40;;;2.45;;
23578;SDS011;11967;50.852;4.400;2023-07-22T11:17:29;6.50;;;2.47;;
23578;SDS011;11967;50.852;4.400;2023-07-22T11:19:56;5.15;;;2.10;;
23578;SDS011;11967;50.852;4.400;2023-07-22T11:22:22;5.70;;;2.55;;
23578;SDS011;11967;50.852;4.400;2023-07-22T11:24:48;4.75;;;2.53;;
23578;SDS011;11967;50.852;4.400;2023-07-22T11:27:14;4.50;;;2.65;;
23578;SDS011;11967;50.852;4.400;2023-07-22T11:29:40;5.28;;;2.53;;
23578;SDS011;11967;50.852;4.400;2023-07-22T11:32:06;5.15;;;2.35;;
23578;SDS011;11967;50.852;4.400;2023-07-22T11:34:40;6.20;;;2.65;;
23578;SDS011;11967;50.852;4.400;2023-07-22T11:37:06;8.20;;;2.88;;
23578;SDS011;11967;50.852;4.400;2023-07-22T11:39:31;5.72;;;2.67;;
23578;SDS011;11967;50.852;4.400;2023-07-22T11:42:01;8.73;;;2.65;;
23578;SDS011;11967;50.852;4.400;2023-07-22T11:44:28;4.80;;;2.30;;
23578;SDS011;11967;50.852;4.400;2023-07-22T11:46:59;5.88;;;2.38;;
23578;SDS011;11967;50.852;4.400;2023-07-22T11:54:31;4.88;;;2.25;;
23578;SDS011;11967;50.852;4.400;2023-07-22T11:57:09;6.03;;;2.50;;
23578;SDS011;11967;50.852;4.400;2023-07-22T11:59:40;6.40;;;2.83;;
23578;SDS011;11967;50.852;4.400;2023-07-22T12:02:19;9.18;;;2.58;;
23578;SDS011;11967;50.852;4.400;2023-07-22T12:04:53;4.70;;;2.50;;
23578;SDS011;11967;50.852;4.400;2023-07-22T12:07:35;2.72;;;2.05;;
23578;SDS011;11967;50.852;4.400;2023-07-22T12:10:03;7.28;;;2.85;;
23578;SDS011;11967;50.852;4.400;2023-07-22T12:12:37;7.50;;;2.50;;
23578;SDS011;11967;50.852;4.400;2023-07-22T12:17:46;5.95;;;2.75;;
23578;SDS011;11967;50.852;4.400;2023-07-22T12:20:23;4.18;;;2.22;;
23578;SDS011;11967;50.852;4.400;2023-07-22T12:22:56;4.13;;;2.38;;
23578;SDS011;11967;50.852;4.400;2023-07-22T12:25:22;6.22;;;2.35;;
23578;SDS011;11967;50.852;4.400;2023-07-22T12:27:48;4.25;;;2.30;;
23578;SDS011;11967;50.852;4.400;2023-07-22T12:30:15;4.35;;;2.05;;
23578;SDS011;11967;50.852;4.400;2023-07-22T12:32:41;3.65;;;2.50;;
23578;SDS011;11967;50.852;4.400;2023-07-22T12:35:07;5.57;;;2.00;;
23578;SDS011;11967;50.852;4.400;2023-07-22T12:37:33;3.08;;;1.80;;
23578;SDS011;11967;50.852;4.400;2023-07-22T12:39:59;5.35;;;2.08;;
23578;SDS011;11967;50.852;4.400;2023-07-22T12:42:25;5.45;;;2.05;;
23578;SDS011;11967;50.852;4.400;2023-07-22T12:44:50;5.07;;;1.70;;
23578;SDS011;11967;50.852;4.400;2023-07-22T12:47:16;4.10;;;1.90;;
23578;SDS011;11967;50.852;4.400;2023-07-22T12:49:42;4.82;;;1.90;;
23578;SDS011;11967;50.852;4.400;2023-07-22T12:52:08;4.85;;;1.90;;
23578;SDS011;11967;50.852;4.400;2023-07-22T12:54:35;5.32;;;1.83;;
23578;SDS011;11967;50.852;4.400;2023-07-22T12:57:01;5.30;;;2.03;;
23578;SDS011;11967;50.852;4.400;2023-07-22T12:59:27;4.55;;;1.95;;
23578;SDS011;11967;50.852;4.400;2023-07-22T13:01:53;5.75;;;2.00;;
23578;SDS011;11967;50.852;4.400;2023-07-22T13:04:18;4.75;;;1.70;;
23578;SDS011;11967;50.852;4.400;2023-07-22T13:06:44;4.95;;;1.80;;
23578;SDS011;11967;50.852;4.400;2023-07-22T13:09:10;4.40;;;1.80;;
23578;SDS011;11967;50.852;4.400;2023-07-22T13:11:36;4.75;;;2.05;;
23578;SDS011;11967;50.852;4.400;2023-07-22T13:14:02;4.00;;;1.98;;
23578;SDS011;11967;50.852;4.400;2023-07-22T13:16:27;4.07;;;2.00;;
23578;SDS011;11967;50.852;4.400;2023-07-22T13:18:53;3.35;;;1.90;;
23578;SDS011;11967;50.852;4.400;2023-07-22T13:21:19;4.45;;;2.08;;
23578;SDS011;11967;50.852;4.400;2023-07-22T13:23:44;3.85;;;2.20;;
23578;SDS011;11967;50.852;4.400;2023-07-22T13:26:10;5.90;;;1.85;;
23578;SDS011;11967;50.852;4.400;2023-07-22T13:28:36;3.78;;;1.98;;
23578;SDS011;11967;50.852;4.400;2023-07-22T13:31:05;3.72;;;1.98;;
23578;SDS011;11967;50.852;4.400;2023-07-22T13:33:31;5.03;;;2.10;;
23578;SDS011;11967;50.852;4.400;2023-07-22T13:35:56;3.60;;;2.05;;
23578;SDS011;11967;50.852;4.400;2023-07-22T13:38:22;3.95;;;1.90;;
23578;SDS011;11967;50.852;4.400;2023-07-22T13:40:47;4.28;;;1.95;;
23578;SDS011;11967;50.852;4.400;2023-07-22T13:43:13;4.47;;;2.17;;
23578;SDS011;11967;50.852;4.400;2023-07-22T13:45:38;3.85;;;2.30;;
23578;SDS011;11967;50.852;4.400;2023-07-22T13:48:04;3.67;;;2.10;;
23578;SDS011;11967;50.852;4.400;2023-07-22T13:50:30;5.47;;;1.70;;
23578;SDS011;11967;50.852;4.400;2023-07-22T13:52:55;6.43;;;2.03;;
23578;SDS011;11967;50.852;4.400;2023-07-22T13:55:21;3.80;;;2.00;;
23578;SDS011;11967;50.852;4.400;2023-07-22T13:57:47;4.35;;;2.30;;
23578;SDS011;11967;50.852;4.400;2023-07-22T14:00:12;3.60;;;2.20;;
23578;SDS011;11967;50.852;4.400;2023-07-22T14:02:39;4.78;;;2.25;;
23578;SDS011;11967;50.852;4.400;2023-07-22T14:05:05;4.07;;;2.15;;
23578;SDS011;11967;50.852;4.400;2023-07-22T14:07:32;9.68;;;2.50;;
23578;SDS011;11967;50.852;4.400;2023-07-22T14:09:58;2.92;;;2.10;;
23578;SDS011;11967;50.852;4.400;2023-07-22T14:12:24;4.40;;;2.47;;
23578;SDS011;11967;50.852;4.400;2023-07-22T14:14:50;4.50;;;1.95;;
23578;SDS011;11967;50.852;4.400;2023-07-22T14:17:15;5.25;;;2.20;;
23578;SDS011;11967;50.852;4.400;2023-07-22T14:19:41;6.57;;;2.40;;
23578;SDS011;11967;50.852;4.400;2023-07-22T14:22:07;5.28;;;2.10;;
23578;SDS011;11967;50.852;4.400;2023-07-22T14:24:33;4.25;;;2.50;;
23578;SDS011;11967;50.852;4.400;2023-07-22T14:26:59;3.92;;;2.13;;
23578;SDS011;11967;50.852;4.400;2023-07-22T14:29:24;9.70;;;2.67;;
23578;SDS011;11967;50.852;4.400;2023-07-22T14:31:50;4.47;;;1.95;;
23578;SDS011;11967;50.852;4.400;2023-07-22T14:34:16;7.07;;;2.40;;
23578;SDS011;11967;50.852;4.400;2023-07-22T14:36:42;5.97;;;2.15;;
23578;SDS011;11967;50.852;4.400;2023-07-22T14:39:08;5.13;;;2.13;;
23578;SDS011;11967;50.852;4.400;2023-07-22T14:41:34;4.47;;;2.25;;
23578;SDS011;11967;50.852;4.400;2023-07-22T14:44:00;11.10;;;2.53;;
23578;SDS011;11967;50.852;4.400;2023-07-22T14:46:25;3.90;;;2.13;;
23578;SDS011;11967;50.852;4.400;2023-07-22T14:48:51;6.65;;;2.00;;
23578;SDS011;11967;50.852;4.400;2023-07-22T14:51:17;4.05;;;2.30;;
23578;SDS011;11967;50.852;4.400;2023-07-22T14:53:42;4.90;;;1.88;;
23578;SDS011;11967;50.852;4.400;2023-07-22T14:56:08;7.50;;;2.08;;
23578;SDS011;11967;50.852;4.400;2023-07-22T14:58:33;4.93;;;2.00;;
23578;SDS011;11967;50.852;4.400;2023-07-22T15:00:59;5.35;;;2.08;;
23578;SDS011;11967;50.852;4.400;2023-07-22T15:03:25;6.28;;;2.13;;
23578;SDS011;11967;50.852;4.400;2023-07-22T15:05:51;4.28;;;1.70;;